createdAt,value
2023-02-23T00:00:55.201Z,96089.13
2023-02-23T00:03:21.599Z,96085.19
2023-02-23T00:05:47.958Z,96087.38
2023-02-23T00:08:14.297Z,96082.97
2023-02-23T00:10:40.680Z,96088.25
2023-02-23T00:13:07.082Z,96084.50
2023-02-23T00:15:33.502Z,96090.31
2023-02-23T00:17:59.914Z,96087.13
2023-02-23T00:20:26.334Z,96076.06
2023-02-23T00:22:52.740Z,96078.94
2023-02-23T00:25:19.070Z,96074.13
2023-02-23T00:27:45.424Z,96072.50
2023-02-23T00:30:11.770Z,96070.06
2023-02-23T00:32:38.175Z,96069.28
2023-02-23T00:35:04.572Z,96068.56
2023-02-23T00:37:30.966Z,96073.72
2023-02-23T00:39:57.335Z,96068.31
2023-02-23T00:42:23.720Z,96064.00
2023-02-23T00:44:50.131Z,96071.75
2023-02-23T00:47:16.502Z,96074.06
2023-02-23T00:49:42.841Z,96072.28
2023-02-23T00:52:09.182Z,96067.16
2023-02-23T00:54:35.565Z,96066.41
2023-02-23T00:57:01.931Z,96058.47
2023-02-23T00:59:28.266Z,96063.97
2023-02-23T01:01:54.653Z,96064.72
2023-02-23T01:04:21.056Z,96066.34
2023-02-23T01:06:47.436Z,96059.63
2023-02-23T01:09:13.964Z,96066.91
2023-02-23T01:11:40.364Z,96063.72
2023-02-23T01:14:06.715Z,96069.22
2023-02-23T01:16:33.061Z,96049.63
2023-02-23T01:18:59.418Z,96052.94
2023-02-23T01:21:25.815Z,96048.63
2023-02-23T01:23:52.230Z,96061.22
2023-02-23T01:26:18.591Z,96049.94
2023-02-23T01:28:44.975Z,96049.13
2023-02-23T01:31:11.414Z,96045.00
2023-02-23T01:33:37.870Z,96054.06
2023-02-23T01:36:04.231Z,96050.94
2023-02-23T01:38:30.623Z,96051.03
2023-02-23T01:40:57.029Z,96040.16
2023-02-23T01:43:23.383Z,96048.59
2023-02-23T01:45:49.786Z,96046.81
2023-02-23T01:48:16.168Z,96042.84
2023-02-23T01:50:42.523Z,96044.94
2023-02-23T01:53:08.901Z,96041.88
2023-02-23T01:55:35.247Z,96046.56
2023-02-23T01:58:01.637Z,96046.47
2023-02-23T02:00:28.042Z,96049.16
2023-02-23T02:02:54.456Z,96042.63
2023-02-23T02:05:20.849Z,96036.69
2023-02-23T02:07:47.256Z,96032.25
2023-02-23T02:10:13.615Z,96029.41
2023-02-23T02:12:39.982Z,96030.56
2023-02-23T02:15:06.347Z,96024.88
2023-02-23T02:17:32.696Z,96023.34
2023-02-23T02:19:59.110Z,96021.09
2023-02-23T02:22:25.516Z,96020.22
2023-02-23T02:24:51.888Z,96019.34
2023-02-23T02:27:18.309Z,96012.94
2023-02-23T02:29:44.661Z,96014.91
2023-02-23T02:32:11.088Z,96011.97
2023-02-23T02:34:37.554Z,96014.81
2023-02-23T02:37:03.949Z,96003.53
2023-02-23T02:39:30.355Z,96012.44
2023-02-23T02:41:56.696Z,96006.09
2023-02-23T02:44:23.085Z,96004.84
2023-02-23T02:46:49.444Z,96002.03
2023-02-23T02:49:15.847Z,96002.84
2023-02-23T02:51:42.215Z,96000.72
2023-02-23T02:54:08.597Z,95996.69
2023-02-23T02:56:34.997Z,96000.75
2023-02-23T02:59:01.386Z,96000.25
2023-02-23T03:01:27.802Z,96000.25
2023-02-23T03:03:54.217Z,96005.50
2023-02-23T03:06:20.571Z,96003.50
2023-02-23T03:08:46.911Z,96004.81
2023-02-23T03:11:13.255Z,96006.56
2023-02-23T03:13:39.634Z,96002.44
2023-02-23T03:16:06.047Z,96007.97
2023-02-23T03:18:32.412Z,96001.34
2023-02-23T03:20:58.809Z,96011.72
2023-02-23T03:23:25.175Z,96002.25
2023-02-23T03:25:51.562Z,95997.38
2023-02-23T03:28:17.953Z,96000.66
2023-02-23T03:30:44.364Z,96004.88
2023-02-23T03:33:10.805Z,95997.25
2023-02-23T03:35:37.182Z,96008.63
2023-02-23T03:38:03.535Z,95997.09
2023-02-23T03:40:29.927Z,95996.91
2023-02-23T03:42:56.288Z,95994.50
2023-02-23T03:45:22.662Z,96000.38
2023-02-23T03:47:49.024Z,95997.63
2023-02-23T03:50:15.372Z,95994.88
2023-02-23T03:52:41.753Z,96005.59
2023-02-23T03:55:08.162Z,96000.03
2023-02-23T03:57:34.522Z,96006.59
2023-02-23T04:00:00.867Z,96002.34
2023-02-23T04:02:27.253Z,95998.09
2023-02-23T04:04:53.641Z,96000.88
2023-02-23T04:07:20.005Z,96000.38
2023-02-23T04:09:46.387Z,95998.50
2023-02-23T04:12:12.778Z,95990.72
2023-02-23T04:14:39.178Z,95993.22
2023-02-23T04:17:05.563Z,95995.13
2023-02-23T04:19:31.959Z,95994.75
2023-02-23T04:21:58.353Z,95999.28
2023-02-23T04:24:24.721Z,95995.81
2023-02-23T04:26:51.109Z,95992.34
2023-02-23T04:29:17.529Z,95997.72
2023-02-23T04:31:44.026Z,95998.09
2023-02-23T04:34:10.421Z,96009.41
2023-02-23T04:36:36.778Z,96001.41
2023-02-23T04:39:03.120Z,96005.44
2023-02-23T04:41:29.486Z,96003.09
2023-02-23T04:43:55.979Z,95998.63
2023-02-23T04:46:22.621Z,96006.75
2023-02-23T04:48:49.071Z,96011.19
2023-02-23T04:51:15.433Z,96001.06
2023-02-23T04:53:41.791Z,96001.53
2023-02-23T04:56:08.175Z,96008.38
2023-02-23T04:58:34.569Z,95999.97
2023-02-23T05:01:01.004Z,96001.97
2023-02-23T05:03:27.408Z,96001.72
2023-02-23T05:05:53.781Z,95998.53
2023-02-23T05:08:20.132Z,96005.75
2023-02-23T05:10:46.522Z,96009.50
2023-02-23T05:13:12.922Z,95999.97
2023-02-23T05:15:39.339Z,95998.91
2023-02-23T05:18:05.699Z,95996.97
2023-02-23T05:20:32.082Z,96001.88
2023-02-23T05:22:58.485Z,96006.16
2023-02-23T05:25:24.846Z,96005.59
2023-02-23T05:27:51.249Z,96011.13
2023-02-23T05:30:17.604Z,96004.69
2023-02-23T05:32:43.998Z,96009.06
2023-02-23T05:35:10.376Z,96001.00
2023-02-23T05:37:36.781Z,95995.84
2023-02-23T05:40:03.133Z,96001.72
2023-02-23T05:42:29.537Z,96003.81
2023-02-23T05:44:55.941Z,95992.22
2023-02-23T05:47:22.299Z,95994.28
2023-02-23T05:49:48.685Z,95991.75
2023-02-23T05:52:15.066Z,95986.78
2023-02-23T05:54:41.408Z,95988.59
2023-02-23T05:57:07.783Z,95994.19
2023-02-23T05:59:34.172Z,95998.56
2023-02-23T06:02:00.579Z,95998.66
2023-02-23T06:04:26.970Z,96004.44
2023-02-23T06:06:53.333Z,95999.53
2023-02-23T06:09:22.954Z,95998.31
2023-02-23T06:11:50.291Z,95996.28
2023-02-23T06:14:16.650Z,96000.00
2023-02-23T06:16:43.257Z,96005.53
2023-02-23T06:19:09.638Z,96006.38
2023-02-23T06:21:35.988Z,96001.47
2023-02-23T06:24:02.423Z,96007.28
2023-02-23T06:26:28.778Z,96003.41
2023-02-23T06:28:55.177Z,96006.00
2023-02-23T06:31:21.849Z,96007.09
2023-02-23T06:33:48.369Z,96011.88
2023-02-23T06:36:14.788Z,96015.03
2023-02-23T06:38:41.174Z,96011.34
2023-02-23T06:41:07.538Z,96018.72
2023-02-23T06:43:33.895Z,96016.59
2023-02-23T06:46:00.297Z,96016.09
2023-02-23T06:48:26.660Z,96015.84
2023-02-23T06:50:53.001Z,96024.59
2023-02-23T06:53:19.406Z,96023.47
2023-02-23T06:55:45.815Z,96019.78
2023-02-23T06:58:12.208Z,96020.84
2023-02-23T07:00:38.561Z,96024.03
2023-02-23T07:03:04.947Z,96019.75
2023-02-23T07:05:31.366Z,96023.38
2023-02-23T07:07:57.744Z,96023.31
2023-02-23T07:10:24.133Z,96025.00
2023-02-23T07:12:50.530Z,96030.44
2023-02-23T07:15:16.923Z,96027.25
2023-02-23T07:17:43.286Z,96032.94
2023-02-23T07:20:09.634Z,96042.88
2023-02-23T07:22:36.033Z,96036.91
2023-02-23T07:25:02.448Z,96038.22
2023-02-23T07:27:28.833Z,96038.59
2023-02-23T07:29:55.194Z,96049.53
2023-02-23T07:32:21.642Z,96035.88
2023-02-23T07:34:48.094Z,96040.41
2023-02-23T07:37:14.465Z,96039.34
2023-02-23T07:39:40.849Z,96041.94
2023-02-23T07:42:07.222Z,96039.38
2023-02-23T07:44:33.614Z,96039.44
2023-02-23T07:47:00.104Z,96032.47
2023-02-23T07:49:26.549Z,96035.16
2023-02-23T07:51:52.956Z,96030.47
2023-02-23T07:54:19.360Z,96035.78
2023-02-23T07:56:45.738Z,96031.69
2023-02-23T07:59:12.092Z,96035.91
2023-02-23T08:01:38.493Z,96032.78
2023-02-23T08:04:04.880Z,96038.53
2023-02-23T08:06:31.316Z,96042.53
2023-02-23T08:08:57.674Z,96039.63
2023-02-23T08:11:24.059Z,96037.03
2023-02-23T08:13:50.463Z,96039.69
2023-02-23T08:16:16.881Z,96037.56
2023-02-23T08:18:43.286Z,96042.59
2023-02-23T08:21:09.702Z,96046.28
2023-02-23T08:23:36.073Z,96046.50
2023-02-23T08:26:02.491Z,96049.69
2023-02-23T08:28:28.930Z,96038.59
2023-02-23T08:30:55.404Z,96040.72
2023-02-23T08:33:21.822Z,96036.50
2023-02-23T08:35:48.178Z,96029.13
2023-02-23T08:38:14.557Z,96028.56
2023-02-23T08:40:40.954Z,96032.28
2023-02-23T08:43:07.362Z,96028.56
2023-02-23T08:45:33.725Z,96034.16
2023-02-23T08:48:00.146Z,96026.50
2023-02-23T08:50:27.559Z,96038.59
2023-02-23T08:52:54.041Z,96025.94
2023-02-23T08:55:20.404Z,96033.31
2023-02-23T08:57:46.757Z,96023.28
2023-02-23T09:00:13.135Z,96029.63
2023-02-23T09:02:39.524Z,96024.34
2023-02-23T09:05:05.981Z,96024.84
2023-02-23T09:07:32.399Z,96024.59
2023-02-23T09:09:58.805Z,96028.25
2023-02-23T09:12:25.168Z,96028.16
2023-02-23T09:14:51.506Z,96030.28
2023-02-23T09:17:18.164Z,96033.53
2023-02-23T09:19:44.584Z,96024.91
2023-02-23T09:22:10.941Z,96033.97
2023-02-23T09:24:37.344Z,96029.53
2023-02-23T09:27:03.698Z,96029.94
2023-02-23T09:29:30.084Z,96037.47
2023-02-23T09:31:56.559Z,96036.47
2023-02-23T09:34:23.060Z,96037.81
2023-02-23T09:36:49.461Z,96036.50
2023-02-23T09:39:15.863Z,96040.16
2023-02-23T09:41:42.231Z,96037.28
2023-02-23T09:44:08.630Z,96035.44
2023-02-23T09:46:34.977Z,96041.78
2023-02-23T09:49:01.327Z,96045.97
2023-02-23T09:51:27.709Z,96040.75
2023-02-23T09:53:54.058Z,96033.34
2023-02-23T09:56:20.455Z,96046.25
2023-02-23T09:58:46.806Z,96035.44
2023-02-23T10:01:13.202Z,96037.06
2023-02-23T10:03:39.577Z,96029.66
2023-02-23T10:06:05.971Z,96035.16
2023-02-23T10:08:32.343Z,96037.56
2023-02-23T10:10:58.699Z,96033.38
2023-02-23T10:13:25.102Z,96029.41
2023-02-23T10:15:51.517Z,96030.19
2023-02-23T10:18:19.004Z,96029.13
2023-02-23T10:20:45.426Z,96026.22
2023-02-23T10:23:11.834Z,96025.94
2023-02-23T10:25:38.208Z,96022.50
2023-02-23T10:28:04.611Z,96018.03
2023-02-23T10:30:31.032Z,96028.03
2023-02-23T10:32:57.434Z,96024.63
2023-02-23T10:35:24.475Z,96025.44
2023-02-23T10:37:50.958Z,96022.78
2023-02-23T10:40:17.318Z,96022.78
2023-02-23T10:42:43.717Z,96023.56
2023-02-23T10:45:10.124Z,96033.09
2023-02-23T10:47:36.494Z,96029.13
2023-02-23T10:50:02.863Z,96029.09
2023-02-23T10:52:30.296Z,96027.00
2023-02-23T10:54:57.981Z,96025.44
2023-02-23T10:57:24.604Z,96021.72
2023-02-23T10:59:51.055Z,96022.81
2023-02-23T11:02:17.830Z,96015.63
2023-02-23T11:04:44.289Z,96023.31
2023-02-23T11:07:10.776Z,96024.09
2023-02-23T11:09:46.601Z,96023.06
2023-02-23T11:12:14.032Z,96016.97
2023-02-23T11:14:41.828Z,96015.91
2023-02-23T11:17:08.221Z,96013.81
2023-02-23T11:19:34.570Z,96011.72
2023-02-23T11:22:00.954Z,96010.13
2023-02-23T11:24:27.306Z,96003.41
2023-02-23T11:26:53.698Z,96003.19
2023-02-23T11:29:20.154Z,96004.22
2023-02-23T11:31:46.611Z,96001.66
2023-02-23T11:34:13.031Z,96001.56
2023-02-23T11:36:39.421Z,96002.56
2023-02-23T11:39:05.787Z,96005.88
2023-02-23T11:41:32.304Z,95997.31
2023-02-23T11:43:58.685Z,95987.81
2023-02-23T11:46:25.112Z,95984.19
2023-02-23T11:48:51.563Z,95975.25
2023-02-23T11:51:17.963Z,95978.19
2023-02-23T11:53:44.321Z,95979.81
2023-02-23T11:56:10.675Z,95980.16
2023-02-23T11:58:37.028Z,95979.09
2023-02-23T12:01:03.378Z,95977.66
2023-02-23T12:03:29.773Z,95969.81
2023-02-23T12:05:56.139Z,95964.88
2023-02-23T12:08:22.535Z,95955.88
2023-02-23T12:10:48.996Z,95960.84
2023-02-23T12:13:15.440Z,95962.16
2023-02-23T12:15:41.845Z,95949.06
2023-02-23T12:18:11.045Z,95949.31
2023-02-23T12:20:37.404Z,95952.38
2023-02-23T12:23:03.755Z,95943.94
2023-02-23T12:25:30.152Z,95950.78
2023-02-23T12:27:56.514Z,95954.13
2023-02-23T12:30:22.859Z,95942.34
2023-02-23T12:32:49.205Z,95941.28
2023-02-23T12:35:15.579Z,95935.88
2023-02-23T12:37:41.940Z,95934.53
2023-02-23T12:40:08.291Z,95935.56
2023-02-23T12:42:34.697Z,95928.09
2023-02-23T12:45:01.070Z,95932.91
2023-02-23T12:47:27.470Z,95929.34
2023-02-23T12:49:53.870Z,95929.56
2023-02-23T12:52:20.269Z,95926.97
2023-02-23T12:54:46.624Z,95922.84
2023-02-23T12:57:12.988Z,95932.69
2023-02-23T12:59:39.346Z,95916.75
2023-02-23T13:02:05.708Z,95919.06
2023-02-23T13:04:32.126Z,95918.56
2023-02-23T13:06:58.526Z,95920.34
2023-02-23T13:09:24.890Z,95915.56
2023-02-23T13:11:51.297Z,95916.75
2023-02-23T13:14:17.705Z,95917.94
2023-02-23T13:16:44.088Z,95906.84
2023-02-23T13:19:10.544Z,95912.91
2023-02-23T13:21:36.900Z,95918.59
2023-02-23T13:24:03.322Z,95910.66
2023-02-23T13:26:29.705Z,95908.97
2023-02-23T13:28:56.099Z,95904.28
2023-02-23T13:31:22.905Z,95901.34
2023-02-23T13:33:49.546Z,95902.94
2023-02-23T13:36:15.923Z,95895.34
2023-02-23T13:38:42.313Z,95900.97
2023-02-23T13:41:08.669Z,95893.69
2023-02-23T13:43:35.057Z,95903.31
2023-02-23T13:46:01.507Z,95902.88
2023-02-23T13:48:27.965Z,95910.13
2023-02-23T13:50:54.357Z,95903.25
2023-02-23T13:53:20.719Z,95896.97
2023-02-23T13:55:49.970Z,95897.19
2023-02-23T13:58:16.548Z,95891.41
2023-02-23T14:00:42.908Z,95892.03
2023-02-23T14:03:09.299Z,95890.34
2023-02-23T14:05:35.711Z,95886.47
2023-02-23T14:08:02.079Z,95884.75
2023-02-23T14:10:28.429Z,95881.16
2023-02-23T14:12:54.821Z,95885.53
2023-02-23T14:15:21.213Z,95886.09
2023-02-23T14:17:47.586Z,95873.31
2023-02-23T14:20:24.284Z,95874.53
2023-02-23T14:22:55.564Z,95879.28
2023-02-23T14:25:21.945Z,95871.78
2023-02-23T14:27:48.370Z,95868.03
2023-02-23T14:30:14.770Z,95867.53
2023-02-23T14:32:41.255Z,95873.47
2023-02-23T14:35:07.742Z,95865.91
2023-02-23T14:37:34.138Z,95873.22
2023-02-23T14:40:00.547Z,95868.19
2023-02-23T14:42:26.910Z,95867.00
2023-02-23T14:44:53.303Z,95870.88
2023-02-23T14:47:19.718Z,95863.31
2023-02-23T14:49:46.129Z,95864.81
2023-02-23T14:52:12.493Z,95863.88
2023-02-23T14:54:38.869Z,95862.16
2023-02-23T14:57:05.213Z,95855.56
2023-02-23T14:59:31.611Z,95854.63
2023-02-23T15:01:58.074Z,95862.56
2023-02-23T15:04:24.498Z,95860.28
2023-02-23T15:06:50.914Z,95862.44
2023-02-23T15:09:17.344Z,95857.63
2023-02-23T15:11:43.721Z,95850.78
2023-02-23T15:14:21.817Z,95859.97
2023-02-23T15:16:53.114Z,95855.81
2023-02-23T15:19:19.474Z,95857.69
2023-02-23T15:21:45.877Z,95849.66
2023-02-23T15:24:12.299Z,95851.44
2023-02-23T15:26:38.671Z,95850.78
2023-02-23T15:29:05.024Z,95850.28
2023-02-23T15:31:31.487Z,95845.38
2023-02-23T15:33:57.872Z,95852.97
2023-02-23T15:36:24.255Z,95849.97
2023-02-23T15:38:50.659Z,95842.34
2023-02-23T15:41:17.206Z,95841.88
2023-02-23T15:43:43.930Z,95839.72
2023-02-23T15:46:10.377Z,95837.72
2023-02-23T15:48:36.802Z,95846.84
2023-02-23T15:51:03.211Z,95851.09
2023-02-23T15:53:29.572Z,95844.56
2023-02-23T15:55:55.967Z,95840.81
2023-02-23T15:58:22.377Z,95835.09
2023-02-23T16:00:48.819Z,95841.22
2023-02-23T16:03:15.207Z,95838.72
2023-02-23T16:05:47.068Z,95841.88
2023-02-23T16:08:13.699Z,95841.22
2023-02-23T16:10:40.104Z,95834.16
2023-02-23T16:13:06.502Z,95841.06
2023-02-23T16:15:32.913Z,95847.50
2023-02-23T16:17:59.289Z,95846.94
2023-02-23T16:20:25.667Z,95847.19
2023-02-23T16:22:52.041Z,95851.69
2023-02-23T16:25:18.401Z,95843.16
2023-02-23T16:27:44.921Z,95848.31
2023-02-23T16:30:11.415Z,95846.59
2023-02-23T16:32:37.976Z,95852.72
2023-02-23T16:35:04.446Z,95849.53
2023-02-23T16:37:30.842Z,95852.41
2023-02-23T16:39:57.268Z,95855.13
2023-02-23T16:42:23.683Z,95853.03
2023-02-23T16:44:50.055Z,95852.91
2023-02-23T16:47:16.455Z,95843.41
2023-02-23T16:49:42.871Z,95849.41
2023-02-23T16:52:09.277Z,95840.38
2023-02-23T16:54:35.761Z,95848.97
2023-02-23T16:57:02.147Z,95848.41
2023-02-23T16:59:28.512Z,95846.38
2023-02-23T17:01:54.893Z,95853.66
2023-02-23T17:04:21.258Z,95854.25
2023-02-23T17:06:47.657Z,95849.00
2023-02-23T17:09:14.058Z,95857.34
2023-02-23T17:11:40.454Z,95858.88
2023-02-23T17:14:06.870Z,95866.13
2023-02-23T17:16:33.322Z,95867.75
2023-02-23T17:18:59.761Z,95867.75
2023-02-23T17:21:26.221Z,95871.94
2023-02-23T17:23:52.636Z,95868.78
2023-02-23T17:26:19.033Z,95871.97
2023-02-23T17:28:45.376Z,95876.78
2023-02-23T17:31:11.747Z,95879.91
2023-02-23T17:33:38.176Z,95886.19
2023-02-23T17:36:04.528Z,95895.19
2023-02-23T17:38:30.915Z,95888.78
2023-02-23T17:40:57.307Z,95895.16
2023-02-23T17:43:24.213Z,95890.66
2023-02-23T17:45:50.674Z,95894.09
2023-02-23T17:48:17.069Z,95890.94
2023-02-23T17:50:43.407Z,95896.22
2023-02-23T17:53:09.761Z,95903.53
2023-02-23T17:55:36.147Z,95903.50
2023-02-23T17:58:02.515Z,95900.63
2023-02-23T18:00:28.874Z,95904.47
2023-02-23T18:02:55.278Z,95897.69
2023-02-23T18:05:21.670Z,95900.69
2023-02-23T18:07:48.755Z,95898.56
2023-02-23T18:10:15.371Z,95915.59
2023-02-23T18:12:41.791Z,95906.00
2023-02-23T18:15:08.136Z,95905.19
2023-02-23T18:17:34.490Z,95901.25
2023-02-23T18:20:00.848Z,95914.88
2023-02-23T18:22:27.272Z,95912.31
2023-02-23T18:24:53.668Z,95918.56
2023-02-23T18:27:20.028Z,95916.41
2023-02-23T18:29:46.364Z,95921.69
2023-02-23T18:32:12.891Z,95922.31
2023-02-23T18:34:39.390Z,95916.31
2023-02-23T18:37:05.765Z,95912.81
2023-02-23T18:39:32.164Z,95906.34
2023-02-23T18:41:58.575Z,95909.44
2023-02-23T18:44:24.932Z,95915.66
2023-02-23T18:46:51.374Z,95912.63
2023-02-23T18:49:17.834Z,95905.53
2023-02-23T18:51:44.243Z,95912.28
2023-02-23T18:54:10.620Z,95913.97
2023-02-23T18:56:37.002Z,95913.97
2023-02-23T18:59:03.406Z,95917.66
2023-02-23T19:01:29.764Z,95914.84
2023-02-23T19:03:56.108Z,95912.31
2023-02-23T19:06:22.510Z,95920.78
2023-02-23T19:08:48.874Z,95919.34
2023-02-23T19:11:15.225Z,95913.06
2023-02-23T19:13:41.568Z,95912.78
2023-02-23T19:16:08.164Z,95909.34
2023-02-23T19:18:34.577Z,95906.22
2023-02-23T19:21:00.923Z,95900.09
2023-02-23T19:23:27.317Z,95905.16
2023-02-23T19:25:53.674Z,95902.28
2023-02-23T19:28:20.083Z,95898.88
2023-02-23T19:30:46.474Z,95889.66
2023-02-23T19:33:12.932Z,95893.88
2023-02-23T19:35:39.406Z,95902.00
2023-02-23T19:38:05.822Z,95902.59
2023-02-23T19:40:32.202Z,95903.84
2023-02-23T19:42:58.596Z,95904.38
2023-02-23T19:45:25.030Z,95909.13
2023-02-23T19:47:51.453Z,95908.84
2023-02-23T19:50:17.847Z,95900.69
2023-02-23T19:52:44.214Z,95912.53
2023-02-23T19:55:10.617Z,95905.66
2023-02-23T19:57:36.986Z,95903.03
2023-02-23T20:00:03.326Z,95904.72
2023-02-23T20:02:29.789Z,95903.06
2023-02-23T20:04:56.275Z,95899.84
2023-02-23T20:07:22.680Z,95895.59
2023-02-23T20:09:49.081Z,95904.50
2023-02-23T20:12:15.478Z,95895.97
2023-02-23T20:14:41.866Z,95904.44
2023-02-23T20:17:08.235Z,95902.75
2023-02-23T20:19:34.569Z,95906.09
2023-02-23T20:22:00.986Z,95909.44
2023-02-23T20:24:27.362Z,95908.63
2023-02-23T20:26:53.744Z,95911.91
2023-02-23T20:29:20.145Z,95906.25
2023-02-23T20:31:46.590Z,95903.63
2023-02-23T20:34:13.034Z,95914.66
2023-02-23T20:36:39.437Z,95906.78
2023-02-23T20:39:05.796Z,95906.28
2023-02-23T20:41:32.315Z,95911.53
2023-02-23T20:43:58.738Z,95909.16
2023-02-23T20:46:25.212Z,95912.81
2023-02-23T20:48:51.666Z,95905.03
2023-02-23T20:51:18.547Z,95902.66
2023-02-23T20:53:45.154Z,95907.22
2023-02-23T20:56:11.516Z,95894.75
2023-02-23T20:58:37.893Z,95899.28
2023-02-23T21:01:04.239Z,95892.66
2023-02-23T21:03:30.749Z,95892.59
2023-02-23T21:05:57.139Z,95896.13
2023-02-23T21:08:23.493Z,95897.09
2023-02-23T21:10:49.828Z,95896.78
2023-02-23T21:13:16.218Z,95901.91
2023-02-23T21:15:42.649Z,95907.59
2023-02-23T21:18:09.054Z,95911.00
2023-02-23T21:20:35.411Z,95908.78
2023-02-23T21:23:01.799Z,95907.91
2023-02-23T21:25:28.185Z,95904.34
2023-02-23T21:27:54.607Z,95908.28
2023-02-23T21:30:20.994Z,95905.50
2023-02-23T21:32:47.493Z,95896.91
2023-02-23T21:35:14.018Z,95891.88
2023-02-23T21:37:40.366Z,95893.31
2023-02-23T21:40:06.718Z,95895.41
2023-02-23T21:42:33.092Z,95892.75
2023-02-23T21:44:59.471Z,95897.63
2023-02-23T21:47:25.862Z,95890.25
2023-02-23T21:49:52.260Z,95884.47
2023-02-23T21:52:18.611Z,95887.66
2023-02-23T21:54:44.976Z,95886.13
2023-02-23T21:57:11.356Z,95890.94
2023-02-23T21:59:37.729Z,95894.53
2023-02-23T22:02:04.135Z,95882.38
2023-02-23T22:04:30.625Z,95884.41
2023-02-23T22:06:56.999Z,95881.13
2023-02-23T22:09:23.354Z,95881.84
2023-02-23T22:11:49.738Z,95882.63
2023-02-23T22:14:16.132Z,95881.75
2023-02-23T22:16:42.541Z,95873.31
2023-02-23T22:19:09.000Z,95874.31
2023-02-23T22:21:35.415Z,95874.09
2023-02-23T22:24:01.767Z,95871.16
2023-02-23T22:26:28.164Z,95866.03
2023-02-23T22:28:54.530Z,95880.31
2023-02-23T22:31:21.297Z,95879.59
2023-02-23T22:33:47.801Z,95882.38
2023-02-23T22:36:14.129Z,95883.91
2023-02-23T22:38:40.463Z,95879.75
2023-02-23T22:41:06.798Z,95889.56
2023-02-23T22:43:33.185Z,95885.59
2023-02-23T22:45:59.528Z,95883.50
2023-02-23T22:48:25.896Z,95884.59
2023-02-23T22:50:52.284Z,95882.53
2023-02-23T22:53:18.679Z,95876.19
2023-02-23T22:55:45.024Z,95878.75
2023-02-23T22:58:11.409Z,95881.41
2023-02-23T23:00:37.786Z,95889.88
2023-02-23T23:03:04.212Z,95882.66
2023-02-23T23:05:30.612Z,95878.75
2023-02-23T23:07:57.026Z,95881.28
2023-02-23T23:10:23.370Z,95876.50
2023-02-23T23:12:49.718Z,95872.50
2023-02-23T23:15:16.065Z,95864.38
2023-02-23T23:17:42.403Z,95858.34
2023-02-23T23:20:08.755Z,95856.50
2023-02-23T23:22:35.141Z,95855.34
2023-02-23T23:25:01.531Z,95856.47
2023-02-23T23:27:27.883Z,95856.03
2023-02-23T23:29:54.253Z,95869.47
2023-02-23T23:32:20.711Z,95856.97
2023-02-23T23:34:47.171Z,95847.72
2023-02-23T23:37:13.532Z,95847.63
2023-02-23T23:39:39.909Z,95853.47
2023-02-23T23:42:06.296Z,95863.72
2023-02-23T23:44:32.697Z,95857.03
2023-02-23T23:46:59.049Z,95851.47
2023-02-23T23:49:25.406Z,95854.16
2023-02-23T23:51:51.818Z,95843.38
2023-02-23T23:54:18.176Z,95853.06
2023-02-23T23:56:44.565Z,95848.69
2023-02-23T23:59:10.917Z,95852.34
